createdAt,value
2017-07-24T00:00:17.179Z,1.30
2017-07-24T00:02:43.540Z,1.65
2017-07-24T00:05:09.908Z,1.55
2017-07-24T00:07:36.274Z,1.70
2017-07-24T00:10:02.596Z,1.80
2017-07-24T00:12:29.059Z,1.60
2017-07-24T00:14:55.514Z,1.50
2017-07-24T00:17:21.919Z,1.30
2017-07-24T00:19:48.227Z,1.67
2017-07-24T00:22:14.671Z,1.50
2017-07-24T00:24:41.068Z,1.33
2017-07-24T00:27:07.413Z,1.50
2017-07-24T00:29:33.973Z,1.45
2017-07-24T00:32:00.275Z,1.50
2017-07-24T00:34:26.607Z,2.10
2017-07-24T00:36:52.940Z,1.85
2017-07-24T00:39:19.239Z,1.30
2017-07-24T00:41:45.687Z,1.70
2017-07-24T00:44:12.731Z,1.70
2017-07-24T00:46:39.932Z,1.50
2017-07-24T00:49:06.236Z,1.55
2017-07-24T00:51:32.641Z,1.77
2017-07-24T00:53:58.964Z,1.40
2017-07-24T00:56:25.369Z,1.40
2017-07-24T00:58:51.807Z,1.45
2017-07-24T01:01:18.156Z,1.62
2017-07-24T01:03:44.688Z,1.60
2017-07-24T01:06:11.816Z,1.30
2017-07-24T01:08:38.147Z,1.60
2017-07-24T01:11:04.543Z,1.27
2017-07-24T01:13:30.871Z,1.70
2017-07-24T01:15:57.260Z,1.40
2017-07-24T01:18:23.654Z,1.40
2017-07-24T01:20:50.052Z,1.27
2017-07-24T01:23:16.390Z,1.25
2017-07-24T01:25:42.716Z,1.48
2017-07-24T01:28:09.088Z,1.40
2017-07-24T01:30:35.401Z,1.40
2017-07-24T01:33:01.901Z,1.30
2017-07-24T01:35:28.294Z,1.30
2017-07-24T01:37:54.611Z,1.20
2017-07-24T01:40:20.967Z,1.30
2017-07-24T01:42:47.323Z,1.40
2017-07-24T01:45:13.663Z,1.30
2017-07-24T01:47:40.187Z,1.50
2017-07-24T01:50:06.588Z,1.20
2017-07-24T01:52:32.936Z,1.15
2017-07-24T01:55:00.123Z,1.30
2017-07-24T01:57:26.528Z,1.60
2017-07-24T01:59:52.868Z,1.30
2017-07-24T02:02:19.335Z,1.33
2017-07-24T02:04:45.675Z,1.30
2017-07-24T02:07:11.975Z,1.73
2017-07-24T02:09:38.343Z,1.48
2017-07-24T02:12:04.740Z,1.30
2017-07-24T02:14:31.183Z,1.35
2017-07-24T02:16:57.511Z,1.37
2017-07-24T02:19:24.927Z,1.60
2017-07-24T02:21:51.219Z,1.58
2017-07-24T02:24:17.557Z,1.10
2017-07-24T02:26:43.899Z,1.50
2017-07-24T02:29:10.204Z,1.75
2017-07-24T02:31:36.543Z,1.92
2017-07-24T02:34:02.917Z,1.60
2017-07-24T02:36:29.321Z,1.17
2017-07-24T02:38:55.788Z,1.08
2017-07-24T02:41:22.196Z,1.08
2017-07-24T02:43:48.603Z,1.60
2017-07-24T02:46:15.148Z,1.30
2017-07-24T02:48:41.445Z,1.73
2017-07-24T02:51:07.879Z,1.20
2017-07-24T02:53:34.187Z,1.20
2017-07-24T02:56:00.584Z,1.20
2017-07-24T02:58:26.892Z,1.40
2017-07-24T03:00:53.232Z,1.12
2017-07-24T03:03:20.388Z,1.27
2017-07-24T03:05:46.698Z,1.45
2017-07-24T03:08:13.028Z,1.60
2017-07-24T03:10:39.337Z,1.40
2017-07-24T03:13:05.675Z,1.42
2017-07-24T03:15:32.039Z,1.73
2017-07-24T03:17:58.353Z,1.45
2017-07-24T03:20:24.679Z,1.70
2017-07-24T03:22:50.985Z,1.37
2017-07-24T03:25:17.320Z,1.40
2017-07-24T03:27:44.558Z,1.65
2017-07-24T03:30:10.877Z,1.50
2017-07-24T03:32:37.213Z,1.55
2017-07-24T03:35:03.556Z,1.80
2017-07-24T03:37:29.867Z,1.60
2017-07-24T03:39:56.308Z,1.58
2017-07-24T03:42:22.652Z,1.50
2017-07-24T03:44:48.987Z,1.60
2017-07-24T03:47:15.327Z,1.35
2017-07-24T03:49:41.656Z,1.42
2017-07-24T03:52:08.027Z,1.40
2017-07-24T03:54:34.412Z,1.40
2017-07-24T03:57:00.716Z,1.30
2017-07-24T03:59:27.020Z,1.58
2017-07-24T04:01:53.731Z,1.50
2017-07-24T04:04:20.053Z,1.60
2017-07-24T04:06:46.355Z,1.67
2017-07-24T04:09:12.693Z,1.40
2017-07-24T04:11:39.027Z,1.52
2017-07-24T04:14:05.346Z,1.85
2017-07-24T04:16:31.923Z,1.73
2017-07-24T04:18:58.235Z,1.20
2017-07-24T04:21:24.532Z,1.60
2017-07-24T04:23:50.859Z,1.70
2017-07-24T04:26:17.188Z,1.60
2017-07-24T04:28:43.522Z,1.83
2017-07-24T04:31:09.839Z,1.50
2017-07-24T04:33:36.917Z,1.58
2017-07-24T04:36:03.223Z,1.80
2017-07-24T04:38:29.587Z,2.00
2017-07-24T04:40:55.955Z,2.00
2017-07-24T04:43:22.341Z,1.95
2017-07-24T04:45:48.799Z,2.30
2017-07-24T04:48:15.144Z,1.95
2017-07-24T04:50:41.445Z,1.80
2017-07-24T04:53:07.903Z,2.00
2017-07-24T04:55:34.221Z,1.90
2017-07-24T04:58:00.543Z,1.70
2017-07-24T05:00:26.851Z,2.50
2017-07-24T05:02:53.225Z,2.40
2017-07-24T05:05:19.561Z,2.03
2017-07-24T05:07:45.976Z,1.67
2017-07-24T05:10:12.355Z,2.30
2017-07-24T05:12:39.433Z,1.85
2017-07-24T05:15:05.895Z,1.70
2017-07-24T05:17:32.944Z,4.65
2017-07-24T05:19:59.314Z,2.45
2017-07-24T05:22:26.399Z,1.90
2017-07-24T05:24:52.699Z,1.87
2017-07-24T05:27:19.080Z,1.30
2017-07-24T05:29:45.400Z,1.70
2017-07-24T05:32:11.719Z,1.83
2017-07-24T05:34:38.047Z,1.60
2017-07-24T05:37:04.369Z,1.52
2017-07-24T05:39:30.759Z,1.70
2017-07-24T05:41:57.176Z,1.95
2017-07-24T05:44:23.522Z,2.00
2017-07-24T05:46:49.832Z,2.20
2017-07-24T05:49:16.187Z,2.00
2017-07-24T05:51:43.276Z,2.20
2017-07-24T05:54:09.611Z,2.72
2017-07-24T05:56:35.947Z,1.80
2017-07-24T05:59:02.285Z,2.40
2017-07-24T06:01:28.590Z,2.35
2017-07-24T06:03:54.967Z,2.55
2017-07-24T06:06:21.263Z,1.85
2017-07-24T06:08:47.558Z,2.00
2017-07-24T06:11:13.915Z,2.12
2017-07-24T06:13:40.245Z,2.35
2017-07-24T06:16:06.580Z,2.25
2017-07-24T06:18:32.928Z,2.20
2017-07-24T06:20:59.251Z,2.05
2017-07-24T06:23:25.584Z,2.40
2017-07-24T06:25:51.998Z,2.08
2017-07-24T06:28:18.448Z,2.03
2017-07-24T06:30:44.745Z,2.00
2017-07-24T06:33:11.300Z,2.22
2017-07-24T06:35:37.646Z,2.45
2017-07-24T06:38:03.992Z,2.40
2017-07-24T06:40:30.323Z,2.03
2017-07-24T06:42:56.645Z,2.35
2017-07-24T06:45:23.006Z,2.10
2017-07-24T06:47:49.332Z,2.75
2017-07-24T06:50:15.738Z,2.87
2017-07-24T06:52:42.088Z,2.25
2017-07-24T06:55:08.400Z,2.20
2017-07-24T06:57:34.829Z,2.08
2017-07-24T07:00:01.191Z,2.50
2017-07-24T07:02:28.254Z,2.50
2017-07-24T07:04:55.299Z,2.30
2017-07-24T07:07:21.637Z,2.10
2017-07-24T07:09:47.920Z,1.90
2017-07-24T07:12:14.278Z,2.08
2017-07-24T07:14:40.603Z,1.90
2017-07-24T07:17:06.911Z,1.92
2017-07-24T07:19:33.259Z,1.77
2017-07-24T07:21:59.580Z,1.70
2017-07-24T07:24:25.867Z,1.90
2017-07-24T07:26:52.202Z,2.00
2017-07-24T07:29:18.497Z,1.35
2017-07-24T07:31:45.535Z,1.75
2017-07-24T07:34:11.893Z,2.30
2017-07-24T07:36:38.198Z,1.90
2017-07-24T07:39:05.264Z,1.95
2017-07-24T07:41:31.644Z,2.70
2017-07-24T07:43:58.915Z,2.08
2017-07-24T07:46:25.223Z,2.03
2017-07-24T07:48:51.631Z,1.95
2017-07-24T07:51:17.949Z,2.05
2017-07-24T07:53:44.263Z,2.30
2017-07-24T07:56:10.595Z,2.00
2017-07-24T07:58:37.714Z,1.73
2017-07-24T08:01:04.048Z,1.80
2017-07-24T08:03:30.330Z,2.20
2017-07-24T08:05:56.680Z,1.80
2017-07-24T08:08:23.005Z,2.12
2017-07-24T08:10:49.367Z,2.00
2017-07-24T08:13:15.762Z,1.67
2017-07-24T08:15:42.437Z,2.00
2017-07-24T08:18:08.811Z,1.98
2017-07-24T08:20:35.129Z,2.20
2017-07-24T08:23:02.121Z,1.90
2017-07-24T08:25:28.447Z,1.92
2017-07-24T08:27:54.796Z,2.10
2017-07-24T08:30:21.126Z,1.60
2017-07-24T08:32:47.433Z,0.93
2017-07-24T08:35:13.784Z,0.90
2017-07-24T08:37:40.100Z,0.88
2017-07-24T08:40:06.412Z,0.95
2017-07-24T08:42:32.735Z,0.80
2017-07-24T08:44:59.028Z,0.80
2017-07-24T08:47:26.105Z,0.70
2017-07-24T08:49:52.507Z,0.80
2017-07-24T08:52:18.822Z,2.22
2017-07-24T08:54:45.134Z,0.70
2017-07-24T08:57:11.589Z,0.90
2017-07-24T08:59:37.902Z,0.95
2017-07-24T09:02:04.285Z,0.70
2017-07-24T09:04:30.616Z,0.90
2017-07-24T09:06:56.950Z,0.98
2017-07-24T09:09:23.256Z,0.90
2017-07-24T09:11:50.325Z,0.80
2017-07-24T09:14:16.655Z,0.90
2017-07-24T09:16:43.074Z,0.85
2017-07-24T09:19:09.494Z,0.62
2017-07-24T09:21:35.823Z,0.90
2017-07-24T09:24:02.128Z,1.05
2017-07-24T09:26:28.465Z,0.90
2017-07-24T09:28:54.762Z,0.80
2017-07-24T09:31:21.125Z,1.12
2017-07-24T09:33:47.535Z,1.00
2017-07-24T09:36:13.837Z,0.82
2017-07-24T09:38:40.185Z,0.88
2017-07-24T09:41:06.489Z,0.90
2017-07-24T09:43:33.543Z,0.70
2017-07-24T09:45:59.896Z,1.05
2017-07-24T09:48:26.226Z,1.12
2017-07-24T09:50:52.582Z,0.90
2017-07-24T09:53:18.988Z,1.00
2017-07-24T09:55:45.325Z,1.15
2017-07-24T09:58:11.696Z,1.00
2017-07-24T10:00:38.813Z,0.90
2017-07-24T10:03:05.132Z,1.05
2017-07-24T10:05:31.428Z,1.15
2017-07-24T10:07:57.800Z,1.20
2017-07-24T10:10:24.119Z,1.00
2017-07-24T10:12:50.431Z,0.98
2017-07-24T10:15:16.777Z,1.10
2017-07-24T10:17:43.095Z,0.95
2017-07-24T10:20:09.449Z,0.90
2017-07-24T10:22:35.830Z,0.95
2017-07-24T10:25:02.929Z,1.20
2017-07-24T10:27:29.289Z,0.93
2017-07-24T10:29:55.644Z,1.23
2017-07-24T10:32:21.956Z,1.10
2017-07-24T10:34:48.298Z,1.02
2017-07-24T10:37:15.432Z,0.98
2017-07-24T10:39:41.916Z,1.10
2017-07-24T10:42:08.240Z,0.90
2017-07-24T10:44:34.569Z,0.85
2017-07-24T10:47:00.889Z,0.90
2017-07-24T10:49:27.244Z,1.20
2017-07-24T10:51:53.589Z,0.80
2017-07-24T10:54:19.935Z,0.90
2017-07-24T10:56:46.227Z,0.80
2017-07-24T10:59:12.595Z,0.80
2017-07-24T11:01:39.764Z,1.08
2017-07-24T11:04:06.121Z,0.88
2017-07-24T11:06:32.431Z,0.80
2017-07-24T11:12:01.684Z,0.90
2017-07-24T11:14:28.632Z,1.02
2017-07-24T11:16:54.991Z,1.20
2017-07-24T11:19:21.303Z,1.10
2017-07-24T11:21:47.643Z,1.05
2017-07-24T11:24:13.995Z,0.80
2017-07-24T11:26:41.080Z,1.08
2017-07-24T11:29:08.127Z,0.85
2017-07-24T11:31:34.468Z,0.88
2017-07-24T11:34:00.796Z,0.90
2017-07-24T11:36:27.125Z,0.80
2017-07-24T11:38:53.455Z,1.00
2017-07-24T11:41:19.784Z,0.90
2017-07-24T11:43:46.140Z,0.90
2017-07-24T11:46:12.575Z,0.80
2017-07-24T11:48:38.923Z,0.80
2017-07-24T11:51:05.223Z,1.10
2017-07-24T11:53:31.535Z,0.95
2017-07-24T11:55:57.893Z,0.75
2017-07-24T11:58:24.277Z,1.17
2017-07-24T12:00:50.692Z,1.12
2017-07-24T12:03:17.060Z,1.10
2017-07-24T12:05:43.401Z,1.10
2017-07-24T12:08:09.725Z,1.00
2017-07-24T12:10:36.095Z,1.20
2017-07-24T12:13:02.416Z,0.93
2017-07-24T12:15:29.022Z,1.10
2017-07-24T12:17:55.340Z,1.10
2017-07-24T12:20:21.649Z,1.00
2017-07-24T12:22:47.976Z,0.90
2017-07-24T12:25:14.282Z,0.90
2017-07-24T12:27:40.620Z,1.00
2017-07-24T12:30:06.928Z,1.00
2017-07-24T12:32:33.256Z,1.00
2017-07-24T12:34:59.600Z,0.80
2017-07-24T12:37:25.946Z,1.00
2017-07-24T12:39:52.304Z,0.90
2017-07-24T12:42:18.640Z,1.00
2017-07-24T12:44:44.969Z,1.08
2017-07-24T12:47:11.270Z,1.15
2017-07-24T12:49:37.597Z,1.30
2017-07-24T12:52:03.962Z,1.05
2017-07-24T12:54:30.996Z,1.10
2017-07-24T12:56:57.387Z,1.37
2017-07-24T12:59:23.752Z,1.35
2017-07-24T13:01:50.063Z,1.40
2017-07-24T13:04:16.366Z,1.60
2017-07-24T13:06:42.701Z,1.58
2017-07-24T13:09:09.038Z,1.33
2017-07-24T13:11:35.431Z,1.40
2017-07-24T13:14:01.777Z,1.70
2017-07-24T13:16:28.091Z,1.70
2017-07-24T13:18:55.008Z,1.90
2017-07-24T13:21:21.357Z,1.90
2017-07-24T13:23:47.704Z,1.87
2017-07-24T13:26:14.032Z,1.60
2017-07-24T13:28:40.372Z,1.80
2017-07-24T13:31:06.727Z,1.70
2017-07-24T13:33:33.030Z,2.00
2017-07-24T13:35:59.377Z,2.00
2017-07-24T13:38:25.760Z,1.62
2017-07-24T13:40:52.172Z,1.73
2017-07-24T13:43:18.532Z,1.52
2017-07-24T13:45:44.916Z,2.00
2017-07-24T13:48:11.264Z,2.20
2017-07-24T13:50:37.611Z,1.70
2017-07-24T13:53:03.928Z,2.00
2017-07-24T13:55:30.307Z,1.98
2017-07-24T13:57:56.672Z,2.10
2017-07-24T14:00:23.008Z,2.00
2017-07-24T14:02:51.421Z,2.10
2017-07-24T14:05:18.532Z,2.50
2017-07-24T14:07:44.932Z,2.30
2017-07-24T14:10:11.276Z,1.37
2017-07-24T14:12:37.624Z,1.80
2017-07-24T14:15:03.973Z,1.40
2017-07-24T14:17:30.310Z,1.45
2017-07-24T14:19:56.627Z,1.30
2017-07-24T14:22:23.021Z,1.30
2017-07-24T14:24:49.383Z,1.10
2017-07-24T14:27:16.000Z,1.20
2017-07-24T14:29:42.348Z,0.90
2017-07-24T14:32:08.660Z,1.00
2017-07-24T14:34:35.033Z,1.10
2017-07-24T14:37:01.468Z,0.80
2017-07-24T14:39:27.799Z,0.80
2017-07-24T14:41:54.216Z,0.90
2017-07-24T14:44:21.351Z,0.95
2017-07-24T14:46:47.713Z,0.75
2017-07-24T14:49:14.789Z,0.98
2017-07-24T14:51:41.125Z,0.80
2017-07-24T14:54:07.512Z,0.90
2017-07-24T14:56:33.955Z,0.88
2017-07-24T14:59:00.320Z,0.75
2017-07-24T15:01:26.679Z,1.30
2017-07-24T15:03:53.035Z,1.10
2017-07-24T15:06:19.362Z,1.00
2017-07-24T15:08:45.687Z,1.30
2017-07-24T15:11:12.023Z,0.90
2017-07-24T15:13:38.575Z,1.05
2017-07-24T15:16:04.963Z,0.82
2017-07-24T15:18:31.303Z,1.00
2017-07-24T15:20:57.613Z,0.80
2017-07-24T15:23:24.287Z,1.27
2017-07-24T15:25:50.642Z,0.88
2017-07-24T15:28:17.009Z,1.08
2017-07-24T15:30:43.389Z,0.90
2017-07-24T15:33:10.457Z,1.00
2017-07-24T15:35:37.551Z,0.98
2017-07-24T15:38:03.911Z,1.20
2017-07-24T15:40:30.223Z,1.00
2017-07-24T15:42:56.552Z,0.90
2017-07-24T15:45:23.685Z,1.00
2017-07-24T15:47:50.037Z,1.02
2017-07-24T15:50:16.404Z,0.80
2017-07-24T15:52:42.751Z,0.90
2017-07-24T15:55:09.118Z,1.10
2017-07-24T15:57:35.489Z,1.17
2017-07-24T16:00:02.588Z,0.93
2017-07-24T16:02:28.953Z,0.70
2017-07-24T16:04:55.298Z,0.85
2017-07-24T16:07:22.707Z,0.80
2017-07-24T16:09:49.201Z,0.80
2017-07-24T16:12:15.576Z,1.10
2017-07-24T16:14:42.158Z,1.20
2017-07-24T16:17:08.605Z,0.80
2017-07-24T16:19:35.293Z,1.00
2017-07-24T16:22:01.717Z,1.00
2017-07-24T16:24:28.444Z,1.20
2017-07-24T16:26:54.923Z,1.00
2017-07-24T16:29:21.301Z,0.77
2017-07-24T16:31:47.676Z,0.68
2017-07-24T16:34:14.040Z,1.12
2017-07-24T16:36:40.425Z,1.20
2017-07-24T16:39:06.760Z,1.30
2017-07-24T16:41:33.103Z,1.10
2017-07-24T16:44:00.237Z,1.20
2017-07-24T16:46:28.171Z,1.20
2017-07-24T16:48:54.515Z,0.85
2017-07-24T16:51:20.883Z,0.90
2017-07-24T16:53:47.227Z,1.10
2017-07-24T16:56:13.564Z,1.00
2017-07-24T16:58:39.949Z,1.20
2017-07-24T17:01:06.270Z,1.10
2017-07-24T17:03:32.584Z,1.05
2017-07-24T17:05:58.940Z,1.10
2017-07-24T17:08:25.421Z,1.20
2017-07-24T17:10:52.512Z,1.30
2017-07-24T17:13:18.843Z,1.12
2017-07-24T17:15:45.257Z,1.45
2017-07-24T17:18:11.653Z,1.40
2017-07-24T17:20:38.016Z,2.30
2017-07-24T17:23:04.393Z,1.92
2017-07-24T17:25:30.717Z,1.62
2017-07-24T17:27:57.298Z,1.77
2017-07-24T17:30:23.653Z,1.70
2017-07-24T17:32:49.993Z,1.40
2017-07-24T17:35:16.376Z,1.90
2017-07-24T17:37:42.754Z,2.00
2017-07-24T17:40:09.146Z,1.95
2017-07-24T17:42:35.565Z,2.50
2017-07-24T17:45:01.960Z,2.00
2017-07-24T17:47:28.344Z,2.40
2017-07-24T17:49:55.504Z,2.42
2017-07-24T17:52:21.890Z,2.60
2017-07-24T17:54:48.283Z,2.92
2017-07-24T17:57:14.622Z,2.50
2017-07-24T17:59:40.980Z,2.80
2017-07-24T18:02:07.376Z,2.60
2017-07-24T18:04:33.751Z,2.50
2017-07-24T18:07:00.168Z,2.62
2017-07-24T18:09:26.563Z,2.83
2017-07-24T18:11:52.941Z,2.97
2017-07-24T18:14:19.420Z,4.45
2017-07-24T18:16:45.829Z,3.33
2017-07-24T18:19:12.211Z,3.60
2017-07-24T18:21:38.545Z,4.40
2017-07-24T18:24:04.956Z,3.35
2017-07-24T18:26:31.371Z,3.17
2017-07-24T18:28:58.594Z,3.10
2017-07-24T18:31:25.217Z,3.97
2017-07-24T18:33:51.641Z,3.40
2017-07-24T18:36:17.966Z,3.10
2017-07-24T18:38:44.280Z,3.37
2017-07-24T18:41:10.728Z,3.05
2017-07-24T18:43:37.064Z,3.17
2017-07-24T18:46:03.416Z,3.45
2017-07-24T18:48:29.735Z,3.55
2017-07-24T18:50:56.060Z,2.60
2017-07-24T18:53:22.444Z,3.42
2017-07-24T18:55:48.805Z,3.10
2017-07-24T18:58:15.171Z,3.50
2017-07-24T19:00:41.774Z,2.92
2017-07-24T19:03:09.149Z,3.37
2017-07-24T19:05:35.475Z,3.60
2017-07-24T19:08:01.874Z,3.65
2017-07-24T19:10:28.202Z,3.37
2017-07-24T19:12:54.621Z,3.92
2017-07-24T19:15:21.001Z,4.05
2017-07-24T19:17:47.361Z,4.05
2017-07-24T19:20:13.688Z,3.97
2017-07-24T19:22:40.122Z,3.62
2017-07-24T19:25:06.522Z,3.30
2017-07-24T19:27:32.956Z,2.83
2017-07-24T19:29:59.293Z,3.97
2017-07-24T19:32:26.035Z,3.55
2017-07-24T19:34:52.381Z,3.15
2017-07-24T19:37:18.705Z,2.85
2017-07-24T19:39:45.060Z,3.28
2017-07-24T19:42:11.427Z,3.53
2017-07-24T19:44:37.774Z,3.00
2017-07-24T19:47:04.125Z,3.20
2017-07-24T19:49:30.448Z,2.87
2017-07-24T19:51:56.804Z,2.85
2017-07-24T19:54:23.172Z,3.53
2017-07-24T19:56:49.546Z,3.75
2017-07-24T19:59:15.903Z,2.67
2017-07-24T20:01:43.060Z,2.90
2017-07-24T20:04:09.456Z,3.00
2017-07-24T20:06:35.780Z,2.62
2017-07-24T20:09:02.183Z,2.62
2017-07-24T20:11:28.618Z,2.92
2017-07-24T20:13:55.040Z,3.05
2017-07-24T20:16:21.424Z,2.50
2017-07-24T20:18:47.836Z,2.58
2017-07-24T20:21:14.232Z,2.78
2017-07-24T20:23:40.549Z,2.37
2017-07-24T20:26:06.886Z,2.58
2017-07-24T20:28:33.487Z,2.47
2017-07-24T20:30:59.901Z,2.53
2017-07-24T20:33:26.268Z,2.20
2017-07-24T20:35:53.314Z,2.00
2017-07-24T20:38:20.412Z,2.55
2017-07-24T20:40:46.765Z,2.40
2017-07-24T20:43:13.079Z,2.40
2017-07-24T20:45:39.412Z,2.35
2017-07-24T20:48:05.752Z,2.20
2017-07-24T20:50:32.933Z,2.33
2017-07-24T20:52:59.995Z,2.22
2017-07-24T20:55:26.316Z,2.60
2017-07-24T20:57:52.699Z,2.42
2017-07-24T21:00:19.088Z,2.00
2017-07-24T21:02:45.455Z,2.35
2017-07-24T21:05:11.755Z,2.22
2017-07-24T21:07:38.064Z,2.00
2017-07-24T21:10:05.151Z,2.80
2017-07-24T21:12:31.511Z,2.55
2017-07-24T21:14:57.847Z,2.28
2017-07-24T21:17:24.195Z,2.70
2017-07-24T21:19:51.249Z,2.20
2017-07-24T21:22:18.355Z,2.35
2017-07-24T21:24:44.688Z,2.55
2017-07-24T21:27:11.119Z,2.92
2017-07-24T21:29:37.468Z,2.47
2017-07-24T21:32:03.795Z,2.80
2017-07-24T21:34:30.147Z,2.75
2017-07-24T21:36:56.520Z,2.55
2017-07-24T21:39:22.855Z,2.40
2017-07-24T21:41:49.199Z,1.90
2017-07-24T21:44:15.498Z,2.05
2017-07-24T21:46:41.806Z,1.83
2017-07-24T21:49:08.924Z,1.95
2017-07-24T21:51:35.308Z,1.80
2017-07-24T21:54:01.616Z,1.80
2017-07-24T21:56:27.948Z,1.70
2017-07-24T21:58:55.009Z,1.90
2017-07-24T22:01:21.316Z,1.45
2017-07-24T22:03:47.722Z,1.95
2017-07-24T22:06:14.029Z,2.00
2017-07-24T22:08:40.340Z,2.10
2017-07-24T22:11:06.672Z,2.10
2017-07-24T22:13:32.968Z,2.40
2017-07-24T22:15:59.333Z,2.80
2017-07-24T22:18:25.629Z,2.35
2017-07-24T22:20:51.961Z,2.85
2017-07-24T22:23:18.391Z,2.45
2017-07-24T22:25:45.504Z,2.80
2017-07-24T22:28:11.815Z,2.50
2017-07-24T22:30:38.132Z,3.20
2017-07-24T22:33:04.447Z,2.90
2017-07-24T22:35:30.815Z,2.37
2017-07-24T22:37:57.140Z,2.75
2017-07-24T22:40:23.441Z,2.85
2017-07-24T22:42:49.748Z,2.50
2017-07-24T22:45:16.099Z,2.50
2017-07-24T22:47:42.407Z,2.90
2017-07-24T22:50:08.764Z,2.55
2017-07-24T22:52:35.179Z,2.53
2017-07-24T22:55:02.247Z,2.55
2017-07-24T22:57:28.573Z,2.70
2017-07-24T22:59:54.975Z,2.45
2017-07-24T23:02:21.311Z,2.15
2017-07-24T23:04:48.389Z,2.30
2017-07-24T23:07:14.724Z,2.20
2017-07-24T23:09:41.088Z,2.58
2017-07-24T23:12:07.420Z,2.28
2017-07-24T23:14:33.820Z,2.28
2017-07-24T23:17:00.182Z,2.85
2017-07-24T23:19:26.516Z,2.50
2017-07-24T23:21:52.824Z,2.42
2017-07-24T23:24:19.262Z,3.33
2017-07-24T23:26:45.592Z,3.00
2017-07-24T23:29:12.163Z,2.97
2017-07-24T23:31:38.500Z,2.55
2017-07-24T23:34:04.829Z,3.10
2017-07-24T23:36:31.233Z,2.60
2017-07-24T23:38:57.595Z,3.30
2017-07-24T23:41:24.671Z,4.00
2017-07-24T23:43:51.148Z,3.40
2017-07-24T23:46:17.523Z,2.97
2017-07-24T23:48:44.667Z,2.87
2017-07-24T23:51:10.981Z,2.55
2017-07-24T23:53:37.387Z,2.72
2017-07-24T23:56:03.692Z,2.50
2017-07-24T23:58:30.007Z,2.50
